Time;durP1;ratioP1;P1;durP2;ratioP2;P2;SDS_P1;SDS_P2;PMS_P1;PMS_P2;Temp;Humidity;BMP_temperature;BMP_pressure;BME280_temperature;BME280_humidity;BME280_pressure;Samples;Min_cycle;Max_cycle;Signal;HPM_P1;HPM_P2
2022/10/19 00:01:22;;;;;;;;;7.75;7.25;;;;;18.54;73.04;101593.81;4995897;28;46877;-83
2022/10/19 00:03:51;;;;;;;;;8.50;8.00;;;;;18.54;73.04;101594.69;4994532;28;45771;-82
2022/10/19 00:09:38;;;;;;;;;7.00;6.25;;;;;18.52;72.92;101593.09;4996185;28;45514;-81
2022/10/19 00:12:04;;;;;;;;;8.75;8.00;;;;;18.51;72.98;101588.78;4996239;28;46051;-82
2022/10/19 00:14:29;;;;;;;;;7.50;7.50;;;;;18.52;72.94;101585.13;4996057;28;45609;-81
2022/10/19 00:16:56;;;;;;;;;7.00;6.75;;;;;18.49;72.96;101583.59;4994382;28;45802;-82
2022/10/19 00:19:25;;;;;;;;;6.00;6.00;;;;;18.51;72.95;101586.97;4996130;28;45804;-81
2022/10/19 00:21:51;;;;;;;;;9.00;8.00;;;;;18.50;73.15;101579.16;4996111;28;45614;-81
2022/10/19 00:24:18;;;;;;;;;8.00;7.00;;;;;18.52;72.83;101582.47;4996048;28;45644;-79
2022/10/19 00:26:43;;;;;;;;;10.50;9.00;;;;;18.48;73.26;101571.31;4978748;28;45668;-82
2022/10/19 00:29:12;;;;;;;;;8.25;8.25;;;;;18.49;72.89;101580.13;4996188;28;46283;-82
2022/10/19 00:31:38;;;;;;;;;7.25;7.00;;;;;18.49;72.94;101577.47;4996115;28;45900;-82
2022/10/19 00:34:03;;;;;;;;;9.00;8.25;;;;;18.46;73.16;101573.28;4977871;28;45785;-81
2022/10/19 00:39:50;;;;;;;;;8.00;8.00;;;;;18.44;73.26;101554.00;4995220;28;45624;-84
2022/10/19 00:42:16;;;;;;;;;7.25;6.75;;;;;18.42;73.42;101553.28;4995922;28;45689;-83
2022/10/19 00:44:44;;;;;;;;;8.00;7.25;;;;;18.41;73.62;101541.81;4995614;28;45608;-80
2022/10/19 00:47:09;;;;;;;;;8.00;8.00;;;;;18.39;73.26;101542.94;4996062;28;45738;-84
2022/10/19 00:56:10;;;;;;;;;6.50;5.25;;;;;18.34;73.41;101532.75;4995596;28;45652;-80
2022/10/19 00:58:36;;;;;;;;;8.25;8.00;;;;;18.34;73.31;101532.75;4995716;28;45663;-82
2022/10/19 01:01:04;;;;;;;;;9.00;8.00;;;;;18.34;72.96;101531.91;4995147;28;45726;-84
2022/10/19 01:03:31;;;;;;;;;8.75;8.75;;;;;18.32;73.38;101524.06;4996808;28;45591;-84
2022/10/19 01:05:56;;;;;;;;;8.50;8.50;;;;;18.32;73.49;101529.38;4997731;28;45709;-83
2022/10/19 01:08:22;;;;;;;;;11.50;9.00;;;;;18.31;73.33;101527.69;4999087;28;45494;-83
2022/10/19 01:11:13;;;;;;;;;9.00;9.00;;;;;18.34;73.36;101529.25;4996291;28;45599;-83
2022/10/19 01:13:46;;;;;;;;;8.25;8.00;;;;;18.33;73.11;101535.53;4995810;28;46290;-83
2022/10/19 01:16:20;;;;;;;;;9.25;8.50;;;;;18.32;73.40;101532.03;4995921;28;45904;-83
2022/10/19 01:19:18;;;;;;;;;6.50;6.50;;;;;18.32;73.64;101534.69;4995475;28;45654;-83
2022/10/19 01:21:58;;;;;;;;;8.00;8.00;;;;;18.28;73.56;101524.47;4915327;28;46681;-83
2022/10/19 01:24:36;;;;;;;;;8.25;7.25;;;;;18.28;73.21;101525.31;4915398;28;45696;-81
2022/10/19 01:27:27;;;;;;;;;8.00;7.00;;;;;18.28;73.68;101519.19;4915455;28;45718;-82
2022/10/19 01:30:30;;;;;;;;;7.00;7.00;;;;;18.28;73.28;101519.19;4915591;28;45590;-83
2022/10/19 01:33:13;;;;;;;;;9.00;8.00;;;;;18.26;73.03;101524.63;4858478;29;46500;-82
2022/10/19 01:39:12;;;;;;;;;7.50;7.50;;;;;18.25;73.39;101516.78;4858383;29;45740;-83
2022/10/19 01:41:54;;;;;;;;;8.00;8.00;;;;;18.24;73.18;101518.63;4858538;29;45778;-78
2022/10/19 01:44:40;;;;;;;;;7.25;7.00;;;;;18.24;73.59;101520.44;4858423;29;46486;-78
2022/10/19 01:47:14;;;;;;;;;7.00;7.00;;;;;18.24;73.03;101515.13;4858154;29;45669;-77
2022/10/19 01:49:49;;;;;;;;;6.75;6.75;;;;;18.22;73.44;101519.72;4858391;29;45727;-83
2022/10/19 01:55:41;;;;;;;;;7.50;6.50;;;;;18.19;73.25;101504.91;4858159;29;45554;-83
2022/10/19 01:58:12;;;;;;;;;8.75;7.00;;;;;18.19;73.41;101502.25;4885258;28;46336;-83
2022/10/19 02:00:42;;;;;;;;;8.00;7.75;;;;;18.18;73.55;101503.25;4914651;28;45778;-83
2022/10/19 02:03:09;;;;;;;;;7.25;6.50;;;;;18.14;73.21;101488.56;4915066;28;45658;-80
2022/10/19 02:05:36;;;;;;;;;9.75;8.00;;;;;18.19;73.35;101488.19;4914739;28;45586;-83
2022/10/19 02:08:07;;;;;;;;;7.00;6.75;;;;;18.17;73.55;101477.69;4990249;28;45904;-82
2022/10/19 02:10:36;;;;;;;;;7.00;7.00;;;;;18.17;73.32;101477.69;4994504;28;45683;-83
2022/10/19 02:13:03;;;;;;;;;9.00;7.00;;;;;18.18;73.37;101481.19;4976958;28;45961;-82
2022/10/19 02:15:30;;;;;;;;;6.50;6.00;;;;;18.16;73.21;101469.88;4993602;28;45782;-82
2022/10/19 02:17:58;;;;;;;;;8.00;6.50;;;;;18.17;73.31;101474.19;4994133;28;45974;-82
2022/10/19 02:20:25;;;;;;;;;8.50;6.25;;;;;18.17;73.46;101474.19;4994343;28;45596;-83
2022/10/19 02:26:13;;;;;;;;;6.00;6.00;;;;;18.14;73.49;101456.72;4994137;28;46076;-82
2022/10/19 02:28:38;;;;;;;;;8.25;8.00;;;;;18.12;73.31;101450.75;4994072;28;46156;-83
2022/10/19 02:31:04;;;;;;;;;7.00;6.25;;;;;18.14;73.69;101446.13;4994346;28;45627;-80
2022/10/19 02:33:30;;;;;;;;;6.75;6.75;;;;;18.12;73.30;101437.47;4994316;28;45493;-81
2022/10/19 02:35:57;;;;;;;;;8.75;7.00;;;;;18.13;73.68;101447.13;4994045;28;46870;-83
2022/10/19 02:38:23;;;;;;;;;7.75;7.25;;;;;18.11;73.24;101434.94;4994207;28;45497;-82
2022/10/19 02:41:22;;;;;;;;;7.00;6.25;;;;;18.11;73.66;101433.16;4994215;28;45679;-81
2022/10/19 02:43:53;;;;;;;;;7.25;7.00;;;;;18.10;73.43;101436.75;4914456;28;45677;-81
2022/10/19 02:46:48;;;;;;;;;4.25;3.00;;;;;18.08;73.83;101430.78;4914433;28;46242;-82
2022/10/19 02:49:14;;;;;;;;;6.50;6.25;;;;;18.08;73.74;101433.44;4912417;28;45697;-83
2022/10/19 02:51:55;;;;;;;;;6.00;6.00;;;;;18.06;73.44;101423.91;4914519;28;45635;-83
2022/10/19 02:54:24;;;;;;;;;8.25;8.00;;;;;18.04;73.78;101414.28;4914375;28;45516;-82
2022/10/19 02:56:50;;;;;;;;;6.00;6.00;;;;;18.02;73.88;101415.41;4914246;28;45874;-83
2022/10/19 02:59:16;;;;;;;;;7.00;6.25;;;;;18.04;73.58;101418.75;4913716;28;46431;-83
2022/10/19 03:01:41;;;;;;;;;6.75;6.00;;;;;18.00;73.67;101412.88;4914233;28;45783;-82
2022/10/19 03:04:06;;;;;;;;;7.00;7.00;;;;;18.00;73.51;101417.34;4914215;28;45775;-82
2022/10/19 03:06:32;;;;;;;;;8.50;6.75;;;;;18.01;73.61;101413.72;4913951;28;46590;-83
2022/10/19 03:08:57;;;;;;;;;7.00;6.00;;;;;17.97;73.45;101405.22;4913769;28;45761;-82
2022/10/19 03:11:22;;;;;;;;;8.00;8.00;;;;;17.98;73.70;101406.88;4914603;28;45729;-82
2022/10/19 03:13:48;;;;;;;;;6.00;5.50;;;;;17.96;73.27;101400.03;4914413;28;45724;-83
2022/10/19 03:16:13;;;;;;;;;8.25;7.75;;;;;17.98;73.48;101401.56;4917606;28;45753;-83
2022/10/19 03:18:39;;;;;;;;;5.00;4.25;;;;;17.94;73.75;101392.22;4921083;28;46303;-82
2022/10/19 03:21:08;;;;;;;;;6.25;6.25;;;;;17.98;73.75;101390.13;4972255;28;45479;-82
2022/10/19 03:26:55;;;;;;;;;7.00;6.25;;;;;17.95;73.58;101393.06;4993794;28;45592;-83
2022/10/19 03:29:20;;;;;;;;;6.25;6.25;;;;;17.94;73.83;101380.78;4996862;28;46222;-84
2022/10/19 03:31:46;;;;;;;;;7.00;7.00;;;;;17.94;73.73;101391.38;4996650;28;45933;-83
2022/10/19 03:34:11;;;;;;;;;6.75;6.75;;;;;17.92;73.61;101385.41;4997045;28;45512;-84
2022/10/19 03:36:38;;;;;;;;;7.50;7.50;;;;;17.91;73.76;101381.06;4996803;28;45646;-84
2022/10/19 03:39:07;;;;;;;;;7.00;6.50;;;;;17.91;73.97;101383.72;4996451;28;46014;-83
2022/10/19 03:41:34;;;;;;;;;6.75;5.75;;;;;17.90;74.02;101380.22;4996815;28;45588;-83
2022/10/19 03:44:00;;;;;;;;;7.00;6.25;;;;;17.85;73.68;101378.97;4996815;28;45698;-84
2022/10/19 03:46:26;;;;;;;;;8.00;7.75;;;;;17.86;73.63;101383.28;4996318;28;45589;-83
2022/10/19 03:48:52;;;;;;;;;9.75;9.00;;;;;17.86;73.68;101375.34;4996418;28;45588;-82
2022/10/19 03:51:20;;;;;;;;;11.00;9.50;;;;;17.85;74.13;101371.00;4996365;28;45449;-82
2022/10/19 03:57:07;;;;;;;;;7.00;7.00;;;;;17.81;73.93;101370.44;4996288;28;45974;-81
2022/10/19 03:59:32;;;;;;;;;7.50;6.50;;;;;17.80;73.57;101371.41;4996064;28;45922;-79
2022/10/19 04:01:58;;;;;;;;;8.00;7.25;;;;;17.79;74.18;101363.59;4996351;28;45610;-80
2022/10/19 04:04:23;;;;;;;;;8.00;7.00;;;;;17.77;73.70;101362.88;4996482;28;45568;-79
2022/10/19 04:06:49;;;;;;;;;7.00;6.25;;;;;17.71;74.13;101366.91;4996313;28;46209;-83
2022/10/19 04:09:18;;;;;;;;;7.00;6.75;;;;;17.72;73.93;101371.25;4996345;28;45753;-83
2022/10/19 04:11:43;;;;;;;;;8.00;8.00;;;;;17.67;73.76;101370.81;4996323;28;45682;-83
2022/10/19 04:14:12;;;;;;;;;7.00;7.00;;;;;17.68;74.52;101369.84;4996503;28;45552;-83
2022/10/19 04:16:37;;;;;;;;;6.25;6.00;;;;;17.67;74.20;101372.63;4996037;28;46402;-83
2022/10/19 04:19:02;;;;;;;;;6.50;6.00;;;;;17.67;73.92;101375.28;4995952;28;45590;-83
2022/10/19 04:21:35;;;;;;;;;8.25;7.75;;;;;17.61;74.36;101369.53;4996410;28;45608;-83
2022/10/19 04:27:23;;;;;;;;;8.25;7.25;;;;;17.62;74.39;101373.03;4995828;28;46110;-83
2022/10/19 04:29:48;;;;;;;;;6.00;6.00;;;;;17.62;74.46;101373.03;4995886;28;45674;-82
2022/10/19 04:32:13;;;;;;;;;8.25;8.00;;;;;17.62;74.38;101375.69;4996081;28;45707;-83
2022/10/19 04:34:39;;;;;;;;;6.50;6.50;;;;;17.60;74.16;101364.38;4996190;28;45875;-81
2022/10/19 04:37:04;;;;;;;;;8.50;8.50;;;;;17.60;74.31;101359.06;4977893;28;47959;-83
2022/10/19 04:42:52;;;;;;;;;7.00;7.00;;;;;17.63;73.96;101376.53;4995511;28;45689;-81
2022/10/19 04:45:17;;;;;;;;;10.00;8.25;;;;;17.63;74.18;101374.72;4995785;28;45694;-80
2022/10/19 04:47:43;;;;;;;;;8.00;8.00;;;;;17.61;74.33;101366.91;4995796;28;45614;-82
2022/10/19 04:50:08;;;;;;;;;7.50;7.50;;;;;17.63;73.95;101361.47;4995550;28;45914;-82
2022/10/19 04:52:34;;;;;;;;;8.25;7.25;;;;;17.63;74.44;101363.28;4995543;28;45587;-81
2022/10/19 04:54:59;;;;;;;;;9.75;8.75;;;;;17.58;74.26;101340.66;4995628;28;45905;-82
2022/10/19 04:57:25;;;;;;;;;8.25;8.00;;;;;17.61;74.59;101339.56;4995463;28;45715;-81
2022/10/19 04:59:50;;;;;;;;;7.00;7.00;;;;;17.59;74.66;101328.25;4995268;28;45598;-81
2022/10/19 05:02:15;;;;;;;;;9.00;8.00;;;;;17.56;74.46;101329.34;4995571;28;45518;-83
2022/10/19 05:04:41;;;;;;;;;9.00;8.00;;;;;17.55;74.76;101317.06;4995399;28;45607;-80
2022/10/19 05:07:06;;;;;;;;;9.25;7.75;;;;;17.53;74.07;101316.38;4995552;28;45607;-80
2022/10/19 05:12:53;;;;;;;;;9.00;8.25;;;;;17.50;74.29;101311.31;4994790;28;45593;-82
2022/10/19 05:15:19;;;;;;;;;11.00;10.25;;;;;17.50;74.85;101306.03;4995373;28;45768;-83
2022/10/19 05:17:44;;;;;;;;;9.75;9.00;;;;;17.51;74.63;101314.81;4995096;28;46380;-83
2022/10/19 05:20:10;;;;;;;;;9.50;9.00;;;;;17.49;74.46;101311.50;4994989;28;46467;-84
2022/10/19 05:22:36;;;;;;;;;9.75;8.75;;;;;17.47;74.82;101308.13;4995235;28;45679;-82
2022/10/19 05:28:23;;;;;;;;;10.25;9.00;;;;;17.45;74.48;101310.91;5000805;28;45605;-80
2022/10/19 05:30:49;;;;;;;;;10.50;10.00;;;;;17.46;74.46;101317.03;5000380;28;45713;-82
2022/10/19 05:33:15;;;;;;;;;10.75;9.00;;;;;17.45;74.89;101312.72;4998497;28;45524;-83
2022/10/19 05:35:40;;;;;;;;;8.00;8.00;;;;;17.42;74.41;101299.75;4980706;28;45853;-85
2022/10/19 05:38:05;;;;;;;;;10.00;10.00;;;;;17.46;74.56;101301.16;4999043;28;45799;-83
2022/10/19 05:40:31;;;;;;;;;11.00;10.00;;;;;17.45;74.37;101297.66;4995609;28;46688;-86
2022/10/19 05:42:56;;;;;;;;;11.00;10.25;;;;;17.45;74.44;101287.06;4977151;28;45708;-76
2022/10/19 05:45:21;;;;;;;;;9.50;9.50;;;;;17.44;74.33;101282.72;4994922;28;45609;-78
2022/10/19 05:47:47;;;;;;;;;11.00;10.75;;;;;17.43;74.77;101280.25;4994860;28;45536;-77
2022/10/19 05:50:12;;;;;;;;;23.50;21.00;;;;;17.47;75.03;101279.81;4994679;28;46188;-75
2022/10/19 05:52:37;;;;;;;;;13.50;10.00;;;;;17.44;74.35;101277.44;4996275;28;45496;-77
2022/10/19 05:58:25;;;;;;;;;12.00;10.75;;;;;17.43;74.48;101283.72;4994197;28;46197;-81
2022/10/19 06:00:55;;;;;;;;;11.00;10.50;;;;;17.43;74.98;101283.72;4994113;28;46090;-76
2022/10/19 06:03:21;;;;;;;;;12.00;10.00;;;;;17.41;74.48;101288.31;4995192;28;45654;-81
2022/10/19 06:05:50;;;;;;;;;14.75;12.75;;;;;17.39;75.08;101282.31;4994953;28;45643;-75
2022/10/19 06:08:20;;;;;;;;;14.25;12.00;;;;;17.39;74.76;101289.41;4995225;28;45872;-84
2022/10/19 06:10:46;;;;;;;;;12.00;9.75;;;;;17.37;75.00;101294.88;4994537;28;46087;-79
2022/10/19 06:13:12;;;;;;;;;12.25;10.25;;;;;17.36;74.98;101293.19;4994356;28;45565;-83
2022/10/19 06:15:39;;;;;;;;;11.00;10.00;;;;;17.37;74.61;101297.50;4994542;28;45592;-84
2022/10/19 06:18:11;;;;;;;;;10.00;9.00;;;;;17.38;74.61;101287.75;4994329;28;45875;-84
2022/10/19 06:20:39;;;;;;;;;11.50;9.75;;;;;17.37;74.53;101289.56;4994421;28;46335;-74
2022/10/19 06:23:05;;;;;;;;;15.75;15.50;;;;;17.38;74.98;101290.41;4992866;28;45762;-76
2022/10/19 06:28:55;;;;;;;;;10.00;9.25;;;;;17.38;74.85;101287.75;4994069;28;46188;-80
2022/10/19 06:31:20;;;;;;;;;7.75;7.00;;;;;17.39;74.78;101286.75;4994248;28;45923;-76
2022/10/19 06:33:46;;;;;;;;;10.50;9.50;;;;;17.38;74.76;101288.56;4994000;28;45664;-75
2022/10/19 06:36:17;;;;;;;;;11.00;10.00;;;;;17.40;74.26;101285.78;4994509;28;45704;-74
2022/10/19 06:38:43;;;;;;;;;12.00;11.00;;;;;17.41;74.79;101290.13;4993755;28;45865;-74
2022/10/19 06:41:10;;;;;;;;;9.25;9.00;;;;;17.39;74.89;101279.66;4994092;28;45746;-77
2022/10/19 06:43:35;;;;;;;;;11.50;10.75;;;;;17.39;74.53;101277.00;4994582;28;45654;-79
2022/10/19 07:43:08;;;;;;;;;11.00;11.00;;;;;17.55;74.61;101272.00;4929274;28;46290;-77
2022/10/19 07:45:33;;;;;;;;;9.75;9.75;;;;;17.56;74.20;101265.75;4939307;28;47098;-78
2022/10/19 07:47:58;;;;;;;;;12.50;10.25;;;;;17.56;74.39;101255.13;4960715;28;47278;-77
2022/10/19 07:50:26;;;;;;;;;17.75;11.00;;;;;17.56;74.15;101254.31;4953273;28;46089;-77
2022/10/19 07:52:51;;;;;;;;;13.50;12.00;;;;;17.61;74.08;101254.75;4952294;28;45836;-75
2022/10/19 07:55:17;;;;;;;;;13.00;10.25;;;;;17.63;73.85;101266.06;4954891;28;45645;-75
2022/10/19 07:57:46;;;;;;;;;12.50;10.50;;;;;17.66;74.41;101259.63;4951233;28;47402;-77
2022/10/19 08:00:11;;;;;;;;;11.00;10.25;;;;;17.63;73.79;101265.22;4946510;28;46540;-74
2022/10/19 08:02:37;;;;;;;;;10.25;10.25;;;;;17.69;74.41;101269.97;4954073;28;46109;-74
2022/10/19 08:05:02;;;;;;;;;11.75;11.00;;;;;17.66;74.07;101251.69;4953776;28;45590;-76
2022/10/19 08:07:28;;;;;;;;;12.50;12.50;;;;;17.68;74.24;101239.97;4953424;28;45643;-74
2022/10/19 08:09:53;;;;;;;;;13.50;12.00;;;;;17.77;73.75;101259.50;4948062;28;47709;-76
2022/10/19 08:12:18;;;;;;;;;11.00;10.00;;;;;17.74;73.76;101255.34;4954094;28;45679;-76
2022/10/19 08:14:44;;;;;;;;;12.75;11.75;;;;;17.83;73.97;101264.25;4952646;28;45689;-74
2022/10/19 08:17:10;;;;;;;;;13.25;10.75;;;;;17.84;74.22;101264.13;4954307;28;47274;-78
2022/10/19 08:19:40;;;;;;;;;15.00;12.00;;;;;17.92;73.88;101264.25;4953070;28;46212;-76
2022/10/19 08:22:05;;;;;;;;;15.00;13.50;;;;;17.95;74.10;101257.84;4953826;28;45593;-77
2022/10/19 08:24:31;;;;;;;;;11.25;11.25;;;;;18.01;73.95;101259.94;4961632;28;45849;-76
2022/10/19 08:26:56;;;;;;;;;12.00;11.50;;;;;18.04;73.84;101251.69;4934913;28;46844;-73
2022/10/19 08:29:21;;;;;;;;;13.00;12.00;;;;;18.10;73.58;101240.50;4953377;28;47142;-77
2022/10/19 08:31:48;;;;;;;;;15.00;13.50;;;;;18.15;73.71;101250.69;4953711;28;45544;-77
2022/10/19 08:34:14;;;;;;;;;14.25;13.00;;;;;18.16;73.39;101242.59;4940623;28;45796;-77
2022/10/19 08:36:39;;;;;;;;;11.50;10.50;;;;;18.20;73.31;101236.00;4951736;28;47173;-76
2022/10/19 08:39:07;;;;;;;;;12.00;11.75;;;;;18.25;73.59;101244.38;4935779;28;47181;-78
2022/10/19 08:41:38;;;;;;;;;13.75;11.75;;;;;18.30;73.43;101238.66;4948605;28;45972;-75
2022/10/19 08:44:03;;;;;;;;;13.25;12.50;;;;;18.32;73.03;101237.53;4943535;28;45783;-77
2022/10/19 08:46:48;;;;;;;;;12.00;11.75;;;;;18.35;73.14;101223.16;4956803;28;45673;-74
2022/10/19 08:49:19;;;;;;;;;13.50;12.00;;;;;18.33;72.63;101227.75;4944305;28;46046;-78
2022/10/19 08:51:50;;;;;;;;;14.00;12.25;;;;;18.39;73.17;101230.69;4953655;28;45635;-74
2022/10/19 08:54:17;;;;;;;;;10.75;9.75;;;;;18.40;73.19;101226.22;4952544;28;45778;-77
2022/10/19 08:57:18;;;;;;;;;13.50;12.50;;;;;18.44;72.91;101227.59;4952521;28;46366;-76
2022/10/19 08:59:52;;;;;;;;;15.25;12.00;;;;;18.43;72.95;101225.91;4940529;28;47122;-75
2022/10/19 09:02:29;;;;;;;;;12.00;11.00;;;;;18.49;72.38;101235.13;4951218;28;45647;-75
2022/10/19 09:05:04;;;;;;;;;13.25;12.75;;;;;18.50;72.50;101231.47;4942720;28;45679;-73
2022/10/19 09:07:33;;;;;;;;;12.00;11.00;;;;;18.42;72.61;101211.81;4947315;28;45792;-75
2022/10/19 09:10:31;;;;;;;;;13.50;12.00;;;;;18.52;72.30;101224.19;4951454;28;46401;-78
2022/10/19 09:13:04;;;;;;;;;14.00;13.00;;;;;18.52;72.50;101219.72;4948782;28;45819;-76
2022/10/19 09:15:35;;;;;;;;;14.00;12.75;;;;;18.55;72.58;101216.00;4952770;28;45767;-75
2022/10/19 09:18:01;;;;;;;;;14.00;11.75;;;;;18.53;72.52;101208.13;4952711;28;46588;-75
2022/10/19 09:21:01;;;;;;;;;13.00;12.00;;;;;18.56;72.73;101199.94;4953046;28;46327;-75
2022/10/19 09:23:36;;;;;;;;;15.50;13.50;;;;;18.58;72.36;101202.41;4953285;28;45847;-75
2022/10/19 09:26:03;;;;;;;;;12.25;11.25;;;;;18.58;72.17;101205.91;4952573;28;46201;-76
2022/10/19 09:28:28;;;;;;;;;12.75;11.25;;;;;18.60;72.48;101203.13;4952771;28;47813;-74
2022/10/19 09:30:57;;;;;;;;;11.50;10.50;;;;;18.63;72.01;101200.16;4952897;28;47347;-73
2022/10/19 09:33:29;;;;;;;;;11.50;11.25;;;;;18.65;72.57;101203.50;4952398;28;45732;-75
2022/10/19 09:35:56;;;;;;;;;12.25;11.50;;;;;18.69;72.43;101199.56;4946480;28;45746;-74
2022/10/19 09:38:27;;;;;;;;;13.00;10.75;;;;;18.71;72.23;101197.63;4957035;28;47309;-73
2022/10/19 09:40:52;;;;;;;;;14.25;13.00;;;;;18.75;72.09;101202.47;4949906;28;46633;-72
2022/10/19 09:43:20;;;;;;;;;13.00;11.25;;;;;18.80;72.27;101202.88;4952672;28;45450;-74
2022/10/19 09:46:04;;;;;;;;;13.00;11.50;;;;;18.85;71.99;101208.59;4950549;28;46146;-76
2022/10/19 09:48:40;;;;;;;;;12.50;10.00;;;;;18.89;71.90;101195.88;4939746;28;45762;-75
2022/10/19 09:51:15;;;;;;;;;14.50;12.75;;;;;18.96;71.69;101207.53;4932403;28;46678;-76
2022/10/19 09:53:50;;;;;;;;;14.25;12.00;;;;;18.99;71.66;101206.44;4952076;28;46086;-76
2022/10/19 09:56:19;;;;;;;;;14.00;12.00;;;;;18.99;71.81;101190.50;4951489;28;46119;-72
2022/10/19 09:58:54;;;;;;;;;14.25;14.00;;;;;19.03;71.50;101197.16;4952203;28;46515;-74
2022/10/19 10:01:33;;;;;;;;;14.25;13.25;;;;;19.08;71.80;101197.56;4951574;28;46428;-75
2022/10/19 10:04:13;;;;;;;;;14.00;11.75;;;;;19.07;71.79;101187.91;4949870;28;45850;-77
2022/10/19 10:06:40;;;;;;;;;12.25;11.25;;;;;19.12;71.45;101183.81;4943214;28;46030;-77
2022/10/19 10:09:06;;;;;;;;;11.25;10.00;;;;;19.08;71.64;101171.81;4949044;28;45932;-75
2022/10/19 10:11:34;;;;;;;;;14.00;12.00;;;;;19.17;71.20;101178.06;4952757;28;46024;-75
2022/10/19 10:14:25;;;;;;;;;11.00;11.00;;;;;19.21;71.11;101180.28;4951283;28;45677;-76
2022/10/19 10:17:01;;;;;;;;;12.50;12.00;;;;;19.26;70.96;101171.84;4949761;28;45725;-77
2022/10/19 10:19:28;;;;;;;;;15.00;11.75;;;;;19.29;71.05;101167.06;4950754;28;46575;-78
2022/10/19 10:21:56;;;;;;;;;13.75;12.00;;;;;19.35;70.94;101165.63;4951678;28;46234;-74
2022/10/19 10:24:27;;;;;;;;;12.50;11.75;;;;;19.38;70.84;101167.97;4952503;28;45680;-76
2022/10/19 10:27:02;;;;;;;;;14.75;13.00;;;;;19.44;70.82;101166.50;4951236;28;45615;-78
2022/10/19 10:29:36;;;;;;;;;12.00;11.00;;;;;19.47;70.57;101159.13;4948906;28;47430;-76
2022/10/19 10:32:15;;;;;;;;;8.50;8.50;;;;;19.52;70.45;101162.16;4950406;28;46372;-75
2022/10/19 10:34:56;;;;;;;;;9.50;9.00;;;;;19.58;70.39;101155.41;4952274;28;46841;-73
2022/10/19 10:37:29;;;;;;;;;12.50;12.00;;;;;19.62;70.42;101148.78;4954755;28;46430;-77
2022/10/19 10:39:57;;;;;;;;;10.75;10.75;;;;;19.60;69.99;101135.63;4954448;28;45639;-76
2022/10/19 10:42:41;;;;;;;;;12.75;11.75;;;;;19.72;70.08;101144.19;4953761;28;47226;-78
2022/10/19 10:45:25;;;;;;;;;11.50;11.25;;;;;19.76;70.04;101137.56;4960023;28;46066;-77
2022/10/19 10:47:52;;;;;;;;;12.50;11.00;;;;;19.78;69.69;101140.91;4974903;28;45893;-78
2022/10/19 10:50:33;;;;;;;;;12.25;12.25;;;;;19.80;69.33;101133.63;4950341;28;45799;-76
2022/10/19 10:53:04;;;;;;;;;11.25;10.75;;;;;19.89;69.33;101130.03;4955470;28;46198;-75
2022/10/19 10:55:31;;;;;;;;;10.25;10.00;;;;;19.95;69.44;101123.25;4955677;28;46127;-77
2022/10/19 10:58:20;;;;;;;;;14.25;12.25;;;;;20.03;69.15;101120.63;4955239;28;45877;-76
2022/10/19 11:00:49;;;;;;;;;10.00;10.00;;;;;20.09;69.13;101126.16;4953431;28;47734;-79
2022/10/19 11:03:23;;;;;;;;;9.50;9.25;;;;;20.16;68.83;101134.34;4955855;28;47168;-74
2022/10/19 11:05:56;;;;;;;;;12.00;11.50;;;;;20.21;68.42;101121.41;4966507;28;45743;-77
2022/10/19 11:09:01;;;;;;;;;12.00;11.50;;;;;20.30;68.24;101106.28;4946828;28;46322;-77
2022/10/19 11:11:40;;;;;;;;;10.50;9.75;;;;;20.37;68.40;101100.22;4941849;28;45697;-76
2022/10/19 11:14:14;;;;;;;;;9.25;9.25;;;;;20.43;67.82;101099.56;4955167;28;46368;-77
2022/10/19 11:16:45;;;;;;;;;11.25;10.50;;;;;20.47;67.47;101100.06;4955073;28;46150;-76
2022/10/19 11:19:21;;;;;;;;;10.50;10.50;;;;;20.53;67.46;101091.44;4938056;28;45654;-77
2022/10/19 11:22:01;;;;;;;;;10.75;9.50;;;;;20.53;67.08;101081.63;4954091;28;46944;-77
2022/10/19 11:24:38;;;;;;;;;10.25;9.50;;;;;20.61;66.83;101083.50;4954917;28;45708;-76
2022/10/19 11:27:09;;;;;;;;;12.75;11.25;;;;;20.64;67.00;101066.34;4954855;28;45695;-77
2022/10/19 11:30:09;;;;;;;;;12.50;11.25;;;;;20.67;66.74;101066.88;4938553;28;46631;-77
2022/10/19 11:32:51;;;;;;;;;13.50;11.75;;;;;20.68;66.81;101046.38;4955004;28;47115;-77
2022/10/19 11:35:24;;;;;;;;;12.00;11.00;;;;;20.71;67.09;101041.56;4942145;28;45797;-76
2022/10/19 11:38:13;;;;;;;;;10.75;10.50;;;;;20.75;67.10;101037.56;4954588;28;45770;-76
2022/10/19 11:40:51;;;;;;;;;11.75;11.75;;;;;20.79;67.29;101038.91;4954651;28;45672;-77
2022/10/19 11:44:08;;;;;;;;;10.00;9.75;;;;;20.84;66.41;101041.06;4954569;28;46431;-77
2022/10/19 11:46:53;;;;;;;;;11.00;10.75;;;;;20.85;67.10;101024.09;4894928;29;45803;-75
2022/10/19 11:49:35;;;;;;;;;12.75;10.00;;;;;20.91;66.52;101031.44;4892964;29;45837;-75
2022/10/19 11:52:22;;;;;;;;;11.00;10.50;;;;;20.97;65.94;101022.78;4894805;29;46123;-74
2022/10/19 11:55:01;;;;;;;;;12.50;10.75;;;;;21.01;66.01;101009.94;4895061;28;47272;-75
2022/10/19 11:57:41;;;;;;;;;9.75;8.50;;;;;21.04;65.70;101004.31;4894593;29;47267;-76
2022/10/19 12:00:13;;;;;;;;;11.00;9.75;;;;;21.07;65.31;100994.13;4894549;29;45802;-75
2022/10/19 12:03:07;;;;;;;;;10.75;9.00;;;;;21.13;65.12;101000.63;4894868;28;45869;-75
2022/10/19 12:05:44;;;;;;;;;12.50;11.00;;;;;21.16;65.29;101001.16;4894802;29;46962;-74
2022/10/19 12:08:13;;;;;;;;;10.00;9.50;;;;;21.20;65.32;100996.34;4894439;28;45685;-74
2022/10/19 12:10:53;;;;;;;;;8.25;8.00;;;;;21.24;65.11;100995.00;4894864;28;46074;-75
2022/10/19 12:13:26;;;;;;;;;11.25;10.25;;;;;21.27;65.09;100994.63;4894912;29;45752;-75
2022/10/19 12:15:55;;;;;;;;;10.25;9.50;;;;;21.31;64.71;101003.97;4894993;29;45661;-74
2022/10/19 12:18:53;;;;;;;;;8.00;8.00;;;;;21.34;64.26;100999.13;4894427;29;46280;-77
2022/10/19 12:21:29;;;;;;;;;10.50;9.25;;;;;21.37;64.76;100999.81;4852876;29;45720;-75
2022/10/19 12:23:58;;;;;;;;;10.50;9.00;;;;;21.45;64.26;101008.63;4882589;29;46058;-77
2022/10/19 12:26:26;;;;;;;;;9.25;8.00;;;;;21.50;64.90;101000.94;4894192;29;46908;-76
2022/10/19 12:29:00;;;;;;;;;10.00;7.75;;;;;21.56;64.50;101002.94;4893758;29;45975;-76
2022/10/19 12:31:27;;;;;;;;;9.00;8.00;;;;;21.57;64.57;100990.44;4893990;29;45750;-76
2022/10/19 12:34:05;;;;;;;;;10.00;9.00;;;;;21.66;63.88;100994.72;4894548;28;45753;-77
2022/10/19 12:36:36;;;;;;;;;9.75;8.00;;;;;21.71;64.52;101003.88;4878651;29;46576;-78
2022/10/19 12:39:20;;;;;;;;;10.50;9.75;;;;;21.78;64.42;101004.03;4878252;29;46230;-74
2022/10/19 12:41:52;;;;;;;;;13.00;11.25;;;;;21.85;63.88;100985.50;4893703;29;45763;-77
2022/10/19 12:45:02;;;;;;;;;8.75;8.75;;;;;21.93;63.46;100983.63;4894077;29;45866;-76
2022/10/19 12:47:27;;;;;;;;;9.00;9.00;;;;;21.99;63.64;100964.28;4852457;29;47406;-74
2022/10/19 12:49:57;;;;;;;;;8.00;7.50;;;;;22.06;63.54;100967.09;4870620;29;46156;-74
2022/10/19 12:52:44;;;;;;;;;10.00;9.25;;;;;22.09;63.41;100966.72;4872665;29;45853;-73
2022/10/19 12:55:26;;;;;;;;;10.00;10.00;;;;;22.10;63.40;100950.56;4872724;29;47778;-73
2022/10/19 12:58:01;;;;;;;;;8.75;8.00;;;;;22.09;63.16;100938.22;4883130;29;46157;-73
2022/10/19 13:00:34;;;;;;;;;10.00;8.50;;;;;22.08;63.13;100928.53;4893493;28;46424;-74
2022/10/19 13:03:05;;;;;;;;;10.00;9.75;;;;;22.10;62.92;100929.19;4882940;29;45877;-76
2022/10/19 13:05:32;;;;;;;;;11.00;8.50;;;;;22.09;62.64;100916.84;4888709;29;45747;-74
2022/10/19 13:08:00;;;;;;;;;10.75;9.00;;;;;22.15;62.54;100920.66;4893078;29;45639;-75
2022/10/19 13:10:27;;;;;;;;;9.00;9.00;;;;;22.16;62.36;100915.16;4880953;29;46353;-74
2022/10/19 13:12:53;;;;;;;;;9.25;8.50;;;;;22.20;62.48;100926.31;4866735;29;45795;-76
2022/10/19 13:15:34;;;;;;;;;8.25;8.00;;;;;22.22;62.27;100921.63;4863476;29;46197;-74
2022/10/19 13:18:03;;;;;;;;;9.00;8.25;;;;;22.23;62.68;100917.97;4888389;28;45831;-76
2022/10/19 13:20:28;;;;;;;;;11.00;9.75;;;;;22.23;62.02;100898.44;4888247;28;46253;-75
2022/10/19 13:23:00;;;;;;;;;8.00;7.25;;;;;22.22;62.78;100891.44;4961803;28;45708;-77